createdAt,value
2022-12-23T21:02:52.834Z,9.71
2022-12-23T21:05:20.567Z,9.75
2022-12-23T21:07:48.284Z,9.73
2022-12-23T21:10:16.118Z,9.73
2022-12-23T21:12:43.856Z,9.77
2022-12-23T21:15:11.793Z,9.79
2022-12-23T21:17:39.529Z,9.75
2022-12-23T21:20:10.127Z,9.81
2022-12-23T21:22:38.000Z,9.81
2022-12-23T21:25:06.321Z,9.80
2022-12-23T21:27:34.035Z,9.82
2022-12-23T21:30:01.820Z,9.82
2022-12-23T21:32:29.659Z,9.74
2022-12-23T21:34:57.424Z,9.72
2022-12-23T21:37:27.320Z,9.71
2022-12-23T21:39:55.043Z,9.69
2022-12-23T21:42:22.786Z,9.64
2022-12-23T21:44:50.561Z,9.67
2022-12-23T21:47:18.332Z,9.65
2022-12-23T21:49:46.136Z,9.58
2022-12-23T21:52:13.821Z,9.49
2022-12-23T21:54:42.928Z,9.44
2022-12-23T21:57:10.668Z,9.38
2022-12-23T21:59:38.365Z,9.37
2022-12-23T22:02:06.080Z,9.29
2022-12-23T22:04:33.801Z,9.30
2022-12-23T22:07:01.534Z,9.23
2022-12-23T22:09:29.273Z,9.23
2022-12-23T22:11:58.711Z,9.18
2022-12-23T22:14:26.413Z,9.14
2022-12-23T22:16:54.190Z,9.20
2022-12-23T22:19:21.927Z,9.17
2022-12-23T22:21:49.646Z,9.15
2022-12-23T22:24:17.352Z,9.20
2022-12-23T22:26:45.142Z,9.21
2022-12-23T22:29:14.198Z,9.20
2022-12-23T22:31:45.820Z,9.25
2022-12-23T22:34:15.983Z,9.28
2022-12-23T22:36:43.907Z,9.41
2022-12-23T22:39:17.739Z,9.41
2022-12-23T22:41:47.679Z,9.42
2022-12-23T22:44:16.770Z,9.43
2022-12-23T22:46:44.740Z,9.37
2022-12-23T22:49:12.908Z,9.32
2022-12-23T22:51:41.269Z,9.32
2022-12-23T22:54:09.800Z,9.29
2022-12-23T22:56:37.806Z,9.28
2022-12-23T22:59:05.822Z,9.23
2022-12-23T23:01:37.105Z,9.18
2022-12-23T23:04:05.651Z,9.18
2022-12-23T23:06:35.153Z,9.14
2022-12-23T23:09:03.180Z,9.06
2022-12-23T23:11:31.149Z,9.06
2022-12-23T23:13:58.953Z,9.08
2022-12-23T23:16:26.989Z,9.07
2022-12-23T23:18:56.435Z,9.04
2022-12-23T23:21:24.187Z,9.06
2022-12-23T23:24:11.866Z,9.09
2022-12-23T23:26:40.087Z,9.02
2022-12-23T23:29:07.829Z,9.02
2022-12-23T23:31:44.222Z,8.97
2022-12-23T23:34:14.400Z,8.81
2022-12-23T23:36:42.762Z,8.70
2022-12-23T23:39:12.823Z,8.68
2022-12-23T23:41:41.194Z,8.72
2022-12-23T23:44:09.310Z,8.75
2022-12-23T23:46:37.402Z,8.73
2022-12-23T23:49:05.262Z,8.72
2022-12-23T23:51:34.366Z,8.71
2022-12-23T23:54:02.181Z,8.60
2022-12-23T23:56:37.603Z,8.60
2022-12-23T23:59:06.410Z,8.54
